createdAt,value
2022-11-07T00:00:08.601Z,588.04
2022-11-07T00:00:18.591Z,588.26
2022-11-07T00:00:28.605Z,587.88
2022-11-07T00:00:38.601Z,588.22
2022-11-07T00:00:50.243Z,588.12
2022-11-07T00:00:58.599Z,587.79
2022-11-07T00:01:08.593Z,587.72
2022-11-07T00:01:18.599Z,587.54
2022-11-07T00:01:28.644Z,587.31
2022-11-07T00:01:38.640Z,588.07
2022-11-07T00:01:48.682Z,587.59
2022-11-07T00:01:58.708Z,587.50
2022-11-07T00:02:08.720Z,587.68
2022-11-07T00:02:18.629Z,587.67
2022-11-07T00:02:28.649Z,587.50
2022-11-07T00:02:38.653Z,587.06
2022-11-07T00:02:48.652Z,587.17
2022-11-07T00:02:58.682Z,587.03
2022-11-07T00:03:08.658Z,587.16
2022-11-07T00:03:19.072Z,587.09
2022-11-07T00:03:28.649Z,587.04
2022-11-07T00:03:38.636Z,587.10
2022-11-07T00:03:48.613Z,586.91
2022-11-07T00:03:58.612Z,586.76
2022-11-07T00:04:09.013Z,586.83
2022-11-07T00:04:18.611Z,586.69
2022-11-07T00:04:28.608Z,586.42
2022-11-07T00:04:38.631Z,587.04
2022-11-07T00:04:48.620Z,586.59
2022-11-07T00:04:58.620Z,586.22
2022-11-07T00:05:08.623Z,586.60
2022-11-07T00:05:18.614Z,586.54
2022-11-07T00:05:28.615Z,586.57
2022-11-07T00:05:38.641Z,586.12
2022-11-07T00:05:48.614Z,586.60
2022-11-07T00:05:58.623Z,586.94
2022-11-07T00:06:08.621Z,586.67
2022-11-07T00:06:18.621Z,586.65
2022-11-07T00:06:28.622Z,586.99
2022-11-07T00:06:38.621Z,586.90
2022-11-07T00:06:48.631Z,586.98
2022-11-07T00:06:58.620Z,586.76
2022-11-07T00:07:08.619Z,586.76
2022-11-07T00:07:18.622Z,586.66
2022-11-07T00:07:28.626Z,586.77
2022-11-07T00:07:38.625Z,586.93
2022-11-07T00:07:48.625Z,587.26
2022-11-07T00:07:58.651Z,586.85
2022-11-07T00:08:08.627Z,586.85
2022-11-07T00:08:18.644Z,586.88
2022-11-07T00:08:28.644Z,586.78
2022-11-07T00:08:38.639Z,587.02
2022-11-07T00:08:48.631Z,586.89
2022-11-07T00:08:58.634Z,586.79
2022-11-07T00:09:08.638Z,586.83
2022-11-07T00:09:18.632Z,586.52
2022-11-07T00:09:28.658Z,586.53
2022-11-07T00:09:38.641Z,586.52
2022-11-07T00:09:48.637Z,586.26
2022-11-07T00:09:58.643Z,586.85
2022-11-07T00:10:08.653Z,586.80
2022-11-07T00:10:18.639Z,586.97
2022-11-07T00:10:28.650Z,586.67
2022-11-07T00:10:38.645Z,586.81
2022-11-07T00:10:48.640Z,586.69
2022-11-07T00:10:58.675Z,586.78
2022-11-07T00:11:08.660Z,586.60
2022-11-07T00:11:18.671Z,586.54
2022-11-07T00:11:28.660Z,586.71
2022-11-07T00:11:38.654Z,586.76
2022-11-07T00:11:48.654Z,586.64
2022-11-07T00:11:58.683Z,586.60
2022-11-07T00:12:08.680Z,586.61
2022-11-07T00:12:18.648Z,587.16
2022-11-07T00:12:28.669Z,586.90
2022-11-07T00:12:38.652Z,586.74
2022-11-07T00:12:48.658Z,586.81
2022-11-07T00:12:58.652Z,586.25
2022-11-07T00:13:08.660Z,586.28
2022-11-07T00:13:18.674Z,586.11
2022-11-07T00:13:28.663Z,586.14
2022-11-07T00:13:38.664Z,585.86
2022-11-07T00:13:48.654Z,586.09
2022-11-07T00:13:58.689Z,586.19
2022-11-07T00:14:08.670Z,586.01
2022-11-07T00:14:18.655Z,586.25
2022-11-07T00:14:28.662Z,586.17
2022-11-07T00:14:38.678Z,586.26
2022-11-07T00:14:48.663Z,585.96
2022-11-07T00:14:58.692Z,585.85
2022-11-07T00:15:08.663Z,585.83
2022-11-07T00:15:18.660Z,585.75
2022-11-07T00:15:28.660Z,585.86
2022-11-07T00:15:38.681Z,585.70
2022-11-07T00:15:48.669Z,585.58
2022-11-07T00:15:58.691Z,585.92
2022-11-07T00:16:08.672Z,585.87
2022-11-07T00:16:18.665Z,585.93
2022-11-07T00:16:28.667Z,585.96
2022-11-07T00:16:38.668Z,585.85
2022-11-07T00:16:48.688Z,585.85
2022-11-07T00:16:58.667Z,586.14
2022-11-07T00:17:08.681Z,585.83
2022-11-07T00:17:18.679Z,586.18
2022-11-07T00:17:28.672Z,586.25
2022-11-07T00:17:38.687Z,585.78
2022-11-07T00:17:48.682Z,585.86
2022-11-07T00:17:58.709Z,586.04
2022-11-07T00:18:08.684Z,585.89
2022-11-07T00:18:18.673Z,586.03
2022-11-07T00:18:28.693Z,585.95
2022-11-07T00:18:38.674Z,585.85
2022-11-07T00:18:48.689Z,585.99
2022-11-07T00:18:58.676Z,585.86
2022-11-07T00:19:08.704Z,585.85
2022-11-07T00:19:18.688Z,585.88
2022-11-07T00:19:28.677Z,585.85
2022-11-07T00:19:38.680Z,585.65
2022-11-07T00:19:48.690Z,586.17
2022-11-07T00:19:58.689Z,585.78
2022-11-07T00:20:08.712Z,586.12
2022-11-07T00:20:18.686Z,586.02
2022-11-07T00:20:28.701Z,585.83
2022-11-07T00:20:38.692Z,585.90
2022-11-07T00:20:48.696Z,585.80
2022-11-07T00:20:58.696Z,586.00
2022-11-07T00:21:08.693Z,585.88
2022-11-07T00:21:18.693Z,586.10
2022-11-07T00:21:28.708Z,585.84
2022-11-07T00:21:38.687Z,585.88
2022-11-07T00:21:48.690Z,585.84
2022-11-07T00:21:58.708Z,585.74
2022-11-07T00:22:08.695Z,586.07
2022-11-07T00:22:18.693Z,586.11
2022-11-07T00:22:28.709Z,586.09
2022-11-07T00:22:38.693Z,586.31
2022-11-07T00:22:48.696Z,585.98
2022-11-07T00:22:58.731Z,586.15
2022-11-07T00:23:08.698Z,586.15
2022-11-07T00:23:18.701Z,586.21
2022-11-07T00:37:31.943Z,585.81
2022-11-07T00:37:41.915Z,585.40
2022-11-07T00:37:51.920Z,585.40
2022-11-07T00:38:01.940Z,585.15
2022-11-07T00:38:11.952Z,585.84
2022-11-07T00:38:21.932Z,585.49
2022-11-07T00:38:31.925Z,585.55
2022-11-07T00:38:41.950Z,585.88
2022-11-07T00:38:51.920Z,585.85
2022-11-07T00:39:01.936Z,585.54
2022-11-07T00:39:11.933Z,585.52
2022-11-07T00:39:21.922Z,585.51
2022-11-07T00:39:31.947Z,585.49
2022-11-07T00:39:41.940Z,585.62
2022-11-07T00:39:51.935Z,585.62
2022-11-07T00:40:01.927Z,586.03
2022-11-07T00:40:11.953Z,585.78
2022-11-07T00:40:21.942Z,585.85
2022-11-07T00:40:31.938Z,585.59
2022-11-07T00:40:41.952Z,585.64
2022-11-07T00:40:51.932Z,585.63
2022-11-07T00:41:01.987Z,585.72
2022-11-07T00:41:11.934Z,585.74
2022-11-07T00:41:21.934Z,585.75
2022-11-07T00:41:31.933Z,585.52
2022-11-07T00:41:41.938Z,585.52
2022-11-07T00:41:51.935Z,585.45
2022-11-07T00:42:01.956Z,585.53
2022-11-07T00:42:11.953Z,585.49
2022-11-07T00:42:21.940Z,585.48
2022-11-07T00:42:31.947Z,585.35
2022-11-07T00:42:41.953Z,585.60
2022-11-07T00:42:51.939Z,585.48
2022-11-07T00:43:01.956Z,585.61
2022-11-07T00:43:12.334Z,585.42
2022-11-07T01:10:55.188Z,583.01
2022-11-07T01:11:05.224Z,583.04
2022-11-07T01:11:15.181Z,583.02
2022-11-07T01:11:25.191Z,583.16
2022-11-07T01:11:35.192Z,582.92
2022-11-07T01:11:45.178Z,583.09
2022-11-07T01:11:55.185Z,583.38
2022-11-07T01:12:05.210Z,583.44
2022-11-07T01:12:15.184Z,583.40
2022-11-07T01:12:25.192Z,583.39
2022-11-07T01:12:35.226Z,583.04
2022-11-07T01:12:45.182Z,582.89
2022-11-07T01:12:55.192Z,583.18
2022-11-07T01:17:28.961Z,582.55
2022-11-07T01:17:38.034Z,582.61
2022-11-07T01:17:48.022Z,582.58
2022-11-07T01:17:57.996Z,582.48
2022-11-07T01:18:08.000Z,582.60
2022-11-07T01:18:18.020Z,582.97
2022-11-07T01:18:28.011Z,583.20
2022-11-07T01:18:38.002Z,583.04
2022-11-07T01:18:48.007Z,582.79
2022-11-07T01:18:58.008Z,582.73
2022-11-07T01:19:08.026Z,582.85
2022-11-07T01:19:18.016Z,582.86
2022-11-07T01:19:28.006Z,582.75
2022-11-07T01:19:38.009Z,583.03
2022-11-07T01:19:48.009Z,583.13
2022-11-07T01:19:58.012Z,582.81
2022-11-07T01:20:08.016Z,582.61
2022-11-07T01:20:18.026Z,582.88
2022-11-07T01:20:28.020Z,583.15
2022-11-07T01:20:38.019Z,582.98
2022-11-07T01:20:48.015Z,582.79
2022-11-07T01:20:58.012Z,583.11
2022-11-07T01:21:10.936Z,582.88
2022-11-07T01:21:19.014Z,582.93
2022-11-07T01:21:28.040Z,582.90
2022-11-07T01:21:38.016Z,583.06
2022-11-07T01:21:48.015Z,583.28
2022-11-07T01:21:58.017Z,583.08
2022-11-07T01:22:08.024Z,583.09
2022-11-07T01:22:18.020Z,583.11
2022-11-07T01:22:28.037Z,583.61
2022-11-07T01:22:38.021Z,583.21
2022-11-07T01:22:48.021Z,583.19
2022-11-07T01:22:58.029Z,583.18
2022-11-07T01:23:08.029Z,583.27
2022-11-07T01:23:18.422Z,583.40
2022-11-07T01:23:28.032Z,583.40
2022-11-07T01:23:38.024Z,583.41
2022-11-07T01:23:48.031Z,583.26
2022-11-07T01:23:58.043Z,583.72
2022-11-07T01:24:08.031Z,583.65
2022-11-07T01:24:18.035Z,584.06
2022-11-07T01:24:28.030Z,584.33
2022-11-07T01:24:38.052Z,584.11
2022-11-07T01:24:48.033Z,583.91
2022-11-07T01:24:58.041Z,584.06
2022-11-07T01:25:08.037Z,584.03
2022-11-07T01:25:18.033Z,584.19
2022-11-07T01:25:28.042Z,584.49
2022-11-07T01:25:38.040Z,584.53
2022-11-07T01:25:48.056Z,584.50
2022-11-07T01:25:58.313Z,584.11
2022-11-07T01:26:08.040Z,584.20
2022-11-07T01:26:18.036Z,583.96
2022-11-07T01:34:45.158Z,584.14
2022-11-07T01:34:54.524Z,584.11
2022-11-07T01:35:04.521Z,584.82
2022-11-07T01:35:14.511Z,584.83
2022-11-07T01:35:24.545Z,584.41
2022-11-07T01:35:34.528Z,584.57
2022-11-07T01:35:44.512Z,584.63
2022-11-07T01:35:54.514Z,584.65
2022-11-07T01:36:06.243Z,584.56
2022-11-07T01:36:14.533Z,584.32
2022-11-07T01:36:24.517Z,584.25
2022-11-07T01:36:34.519Z,584.13
2022-11-07T01:36:44.521Z,584.38
2022-11-07T01:36:54.519Z,584.32
2022-11-07T01:37:04.529Z,584.68
2022-11-07T01:37:14.530Z,584.60
2022-11-07T01:37:24.554Z,584.86
2022-11-07T01:37:34.536Z,584.53
2022-11-07T01:37:44.524Z,584.13
2022-11-07T01:37:54.524Z,583.76
2022-11-07T01:38:04.530Z,585.04
2022-11-07T01:38:14.529Z,584.86
2022-11-07T01:38:24.528Z,584.34
2022-11-07T01:38:34.553Z,584.26
2022-11-07T01:38:44.530Z,584.49
2022-11-07T01:38:54.528Z,584.66
2022-11-07T01:39:04.544Z,584.85
2022-11-07T01:39:14.539Z,584.17
2022-11-07T01:39:24.531Z,584.64
2022-11-07T01:39:34.550Z,584.96
2022-11-07T01:39:44.535Z,584.69
2022-11-07T01:39:54.533Z,584.10
2022-11-07T01:40:04.549Z,584.22
2022-11-07T01:40:14.533Z,584.43
2022-11-07T01:40:24.537Z,583.93
2022-11-07T01:40:34.560Z,583.87
2022-11-07T01:40:44.541Z,584.61
2022-11-07T01:40:54.545Z,584.62
2022-11-07T01:41:04.541Z,584.48
2022-11-07T01:41:14.536Z,584.55
2022-11-07T01:41:24.546Z,584.38
2022-11-07T01:41:34.557Z,584.29
2022-11-07T01:41:44.555Z,584.45
2022-11-07T01:41:54.552Z,584.36
2022-11-07T01:42:04.556Z,584.21
2022-11-07T01:42:14.545Z,584.24
2022-11-07T01:42:24.547Z,584.99
2022-11-07T01:42:34.543Z,584.96
2022-11-07T01:42:44.563Z,585.21
2022-11-07T01:42:54.547Z,585.04
2022-11-07T01:43:04.561Z,584.91
2022-11-07T01:43:14.929Z,584.70
2022-11-07T01:43:24.552Z,584.63
2022-11-07T01:43:34.548Z,584.36
2022-11-07T01:43:44.557Z,584.63
2022-11-07T01:43:54.581Z,584.45
2022-11-07T01:44:04.582Z,584.64
2022-11-07T01:44:14.549Z,584.50
2022-11-07T01:44:24.549Z,584.26
2022-11-07T01:44:34.558Z,584.07
2022-11-07T01:44:44.551Z,584.60
2022-11-07T01:44:54.552Z,584.39
2022-11-07T01:45:04.565Z,584.42
2022-11-07T01:45:14.575Z,584.32
2022-11-07T01:45:24.555Z,584.56
2022-11-07T01:45:34.554Z,584.33
2022-11-07T01:45:44.562Z,584.39
2022-11-07T01:45:54.556Z,584.34
2022-11-07T01:46:04.559Z,584.39
2022-11-07T01:46:14.580Z,584.47
2022-11-07T01:46:24.570Z,584.40
2022-11-07T01:46:34.559Z,584.40
2022-11-07T01:46:44.563Z,584.41
2022-11-07T01:46:54.557Z,584.60
2022-11-07T01:47:04.558Z,584.60
2022-11-07T01:47:14.584Z,584.59
2022-11-07T01:47:24.571Z,584.45
2022-11-07T01:47:34.562Z,584.18
2022-11-07T01:47:44.575Z,584.98
2022-11-07T01:47:54.580Z,584.66
2022-11-07T01:48:04.568Z,584.59
2022-11-07T01:48:14.570Z,584.95
2022-11-07T01:48:24.571Z,584.55
2022-11-07T01:48:34.583Z,584.42
2022-11-07T01:56:51.002Z,584.63
2022-11-07T01:57:00.938Z,584.92
2022-11-07T01:57:10.949Z,585.01
2022-11-07T01:57:20.999Z,585.31
2022-11-07T01:57:30.941Z,585.23
2022-11-07T01:57:40.948Z,584.62
2022-11-07T01:57:50.946Z,584.68
2022-11-07T01:58:00.945Z,585.15
2022-11-07T01:58:10.945Z,585.08
2022-11-07T01:58:20.993Z,585.53
2022-11-07T01:58:30.957Z,585.18
2022-11-07T01:58:40.944Z,585.14
2022-11-07T01:58:50.954Z,584.74
2022-11-07T01:59:00.956Z,584.99
2022-11-07T01:59:10.962Z,585.01
2022-11-07T01:59:20.993Z,584.90
2022-11-07T01:59:30.954Z,584.88
2022-11-07T01:59:40.948Z,584.83
2022-11-07T01:59:50.958Z,585.02
2022-11-07T02:00:00.954Z,585.15
2022-11-07T02:00:10.947Z,584.81
2022-11-07T02:00:21.005Z,584.69
2022-11-07T02:00:30.953Z,584.63
2022-11-07T02:00:40.951Z,584.41
2022-11-07T02:00:50.963Z,584.74
2022-11-07T02:01:00.960Z,584.76
2022-11-07T02:01:10.954Z,584.79
2022-11-07T02:01:21.042Z,585.69
2022-11-07T02:01:31.024Z,585.05
2022-11-07T02:01:41.136Z,584.89
2022-11-07T02:01:51.059Z,584.58
2022-11-07T02:02:01.096Z,584.83
2022-11-07T02:02:11.022Z,584.69
2022-11-07T02:02:21.771Z,584.40
2022-11-07T02:02:31.056Z,585.38
2022-11-07T02:02:41.156Z,585.03
2022-11-07T02:02:51.114Z,584.92
2022-11-07T02:03:01.118Z,584.85
2022-11-07T02:03:11.009Z,584.90
2022-11-07T02:03:20.973Z,584.84
2022-11-07T02:03:30.976Z,585.02
2022-11-07T02:03:40.971Z,584.96
2022-11-07T02:03:51.026Z,585.37
2022-11-07T02:04:00.983Z,584.73
2022-11-07T02:04:10.973Z,584.77
2022-11-07T02:04:20.990Z,584.46
2022-11-07T02:04:30.978Z,584.75
2022-11-07T02:04:40.977Z,584.66
2022-11-07T02:04:51.028Z,584.87
2022-11-07T02:05:00.987Z,584.86
2022-11-07T02:05:10.978Z,585.91
2022-11-07T02:05:20.990Z,585.01
2022-11-07T02:05:30.983Z,584.85
2022-11-07T02:05:40.994Z,584.87
2022-11-07T02:05:51.048Z,584.77
2022-11-07T02:06:00.989Z,584.84
2022-11-07T02:06:10.994Z,585.02
2022-11-07T02:06:20.993Z,584.30
2022-11-07T02:06:30.987Z,584.48
2022-11-07T02:06:40.990Z,584.62
2022-11-07T02:06:51.003Z,584.65
2022-11-07T02:07:01.048Z,584.65
2022-11-07T02:07:10.994Z,584.82
2022-11-07T02:07:20.997Z,584.90
2022-11-07T02:07:30.991Z,584.68
2022-11-07T02:07:40.993Z,584.38
2022-11-07T02:07:51.015Z,584.48
2022-11-07T02:08:01.063Z,584.88
2022-11-07T02:08:10.997Z,584.75
2022-11-07T02:08:21.004Z,585.21
2022-11-07T02:08:31.004Z,585.01
2022-11-07T02:08:41.002Z,585.33
2022-11-07T02:08:51.006Z,585.00
2022-11-07T02:09:01.068Z,585.80
2022-11-07T02:09:11.001Z,585.05
2022-11-07T02:09:21.001Z,585.35
2022-11-07T02:09:31.010Z,585.25
2022-11-07T02:09:41.003Z,585.11
2022-11-07T02:09:51.003Z,584.63
2022-11-07T02:10:01.062Z,584.65
2022-11-07T02:10:11.004Z,584.67
2022-11-07T02:10:21.006Z,585.07
2022-11-07T02:10:31.009Z,585.26
2022-11-07T02:10:41.010Z,584.73
2022-11-07T02:10:51.018Z,584.67
2022-11-07T02:11:01.018Z,584.53
2022-11-07T02:11:11.074Z,584.62
2022-11-07T02:11:21.011Z,584.21
2022-11-07T02:11:31.016Z,584.43
2022-11-07T02:11:41.013Z,584.42
2022-11-07T02:11:51.009Z,584.45
2022-11-07T02:12:01.222Z,584.71
2022-11-07T02:12:11.080Z,584.80
2022-11-07T02:12:21.011Z,584.68
2022-11-07T02:12:31.014Z,584.85
2022-11-07T02:12:41.014Z,584.63
2022-11-07T02:12:51.015Z,584.60
2022-11-07T02:13:01.019Z,584.59
2022-11-07T02:13:11.173Z,584.57
2022-11-07T02:13:21.016Z,585.27
2022-11-07T02:13:31.018Z,584.09
2022-11-07T02:13:41.024Z,584.40
2022-11-07T02:13:51.020Z,585.63
2022-11-07T02:14:01.023Z,584.74
2022-11-07T02:14:11.034Z,585.03
2022-11-07T02:14:21.029Z,585.12
2022-11-07T02:14:31.082Z,585.09
2022-11-07T02:14:41.022Z,584.60
2022-11-07T02:14:51.030Z,585.27
2022-11-07T02:15:01.033Z,584.82
2022-11-07T02:15:11.027Z,585.91
2022-11-07T02:15:21.055Z,584.78
2022-11-07T02:15:31.043Z,584.77
2022-11-07T02:15:41.083Z,584.81
2022-11-07T02:15:51.029Z,584.54
2022-11-07T02:16:01.033Z,584.61
2022-11-07T02:16:11.031Z,584.71
2022-11-07T02:16:21.039Z,584.81
2022-11-07T02:16:31.045Z,584.88
2022-11-07T02:16:41.108Z,584.80
2022-11-07T02:16:51.038Z,584.82
2022-11-07T02:17:01.035Z,584.92
2022-11-07T02:17:11.038Z,585.00
2022-11-07T02:17:21.039Z,584.84
2022-11-07T02:17:31.041Z,584.53
2022-11-07T02:17:41.117Z,584.37
2022-11-07T02:17:51.039Z,584.40
2022-11-07T02:18:01.041Z,584.60
2022-11-07T02:18:11.041Z,584.61
2022-11-07T02:18:21.077Z,584.43
2022-11-07T02:18:31.064Z,584.59
2022-11-07T02:18:41.098Z,584.77
2022-11-07T02:18:51.047Z,584.44
2022-11-07T02:19:01.041Z,584.37
2022-11-07T02:19:11.047Z,584.17
2022-11-07T02:19:21.048Z,584.48
2022-11-07T02:19:31.047Z,584.39
2022-11-07T02:19:41.090Z,584.65
2022-11-07T02:19:51.046Z,584.84
2022-11-07T02:20:01.050Z,584.61
2022-11-07T02:20:11.051Z,584.74
2022-11-07T02:20:21.048Z,584.64
2022-11-07T02:20:31.049Z,584.33
2022-11-07T02:20:41.110Z,584.35
2022-11-07T02:20:51.055Z,585.89
2022-11-07T02:21:01.049Z,584.99
2022-11-07T02:21:11.052Z,584.76
2022-11-07T02:21:21.052Z,584.38
2022-11-07T02:21:31.056Z,584.32
2022-11-07T02:21:41.121Z,584.64
2022-11-07T02:21:51.058Z,585.02
2022-11-07T02:22:01.058Z,584.47
2022-11-07T02:22:11.072Z,584.56
2022-11-07T02:22:21.061Z,584.20
2022-11-07T02:22:31.058Z,584.29
2022-11-07T02:22:41.110Z,584.28
2022-11-07T02:22:51.065Z,585.44
2022-11-07T02:23:01.069Z,584.38
2022-11-07T02:23:11.111Z,584.67
2022-11-07T02:23:21.067Z,584.69
2022-11-07T02:23:31.063Z,584.61
2022-11-07T02:23:41.126Z,584.75
2022-11-07T02:23:51.064Z,584.44
2022-11-07T02:24:01.067Z,584.55
2022-11-07T02:24:11.083Z,584.72
2022-11-07T02:24:21.064Z,584.84
2022-11-07T02:24:31.078Z,584.60
2022-11-07T02:24:41.079Z,584.79
2022-11-07T02:24:51.163Z,584.75
2022-11-07T02:25:01.074Z,584.22
2022-11-07T02:25:11.067Z,584.95
2022-11-07T02:25:21.069Z,584.48
2022-11-07T02:25:31.070Z,585.01
2022-11-07T02:25:41.072Z,585.31
2022-11-07T02:25:51.132Z,585.20
2022-11-07T02:26:01.072Z,585.69
2022-11-07T02:26:11.076Z,585.67
2022-11-07T02:26:21.077Z,585.34
2022-11-07T02:26:31.074Z,585.31
2022-11-07T02:26:41.076Z,584.76
2022-11-07T02:26:51.146Z,584.68
2022-11-07T02:27:01.078Z,584.89
2022-11-07T02:27:11.093Z,584.32
2022-11-07T02:27:21.086Z,584.28
2022-11-07T02:27:31.090Z,584.72
2022-11-07T02:27:41.079Z,584.60
2022-11-07T02:27:51.084Z,584.60
2022-11-07T02:28:01.143Z,585.13
2022-11-07T02:28:11.078Z,585.15
2022-11-07T03:07:25.372Z,582.98
2022-11-07T03:07:35.382Z,582.96
2022-11-07T03:07:45.366Z,582.79
2022-11-07T03:07:55.366Z,583.01
2022-11-07T03:08:05.391Z,583.74
2022-11-07T03:08:15.368Z,583.32
2022-11-07T03:08:25.368Z,583.09
2022-11-07T03:08:35.377Z,582.96
2022-11-07T03:08:45.378Z,582.90
2022-11-07T03:08:55.371Z,583.18
2022-11-07T03:09:05.389Z,583.11
2022-11-07T03:09:15.372Z,583.21
2022-11-07T03:09:25.375Z,582.84
2022-11-07T03:09:35.374Z,582.89
2022-11-07T03:09:45.379Z,583.00
2022-11-07T03:09:55.375Z,583.07
2022-11-07T03:10:05.431Z,582.85
2022-11-07T03:10:15.401Z,582.70
2022-11-07T03:10:25.376Z,583.14
2022-11-07T03:10:35.383Z,583.08
2022-11-07T03:10:45.392Z,582.76
2022-11-07T03:10:55.383Z,582.73
2022-11-07T03:11:05.379Z,582.96
2022-11-07T03:11:15.397Z,583.10
2022-11-07T03:11:25.381Z,583.20
2022-11-07T03:11:35.382Z,582.91
2022-11-07T03:11:45.384Z,582.71
2022-11-07T03:11:55.391Z,582.70
2022-11-07T03:12:05.385Z,582.72
2022-11-07T03:12:15.382Z,583.11
2022-11-07T03:12:25.415Z,583.17
2022-11-07T03:12:35.383Z,583.00
2022-11-07T03:12:45.391Z,582.91
2022-11-07T03:12:55.393Z,582.89
2022-11-07T03:13:05.392Z,582.61
2022-11-07T03:13:15.760Z,582.69
2022-11-07T03:13:25.422Z,582.45
2022-11-07T03:13:35.387Z,582.84
2022-11-07T03:13:45.390Z,582.62
2022-11-07T03:13:55.392Z,582.60
2022-11-07T03:14:05.398Z,582.98
2022-11-07T03:14:15.394Z,582.83
2022-11-07T03:14:25.438Z,583.21
2022-11-07T03:14:35.448Z,582.86
2022-11-07T03:14:45.459Z,582.59
2022-11-07T03:14:55.416Z,582.61
2022-11-07T03:15:05.458Z,582.80
2022-11-07T03:15:15.411Z,583.21
2022-11-07T03:15:25.405Z,582.69
2022-11-07T03:15:35.414Z,583.82
2022-11-07T03:15:45.408Z,583.62
2022-11-07T03:15:55.404Z,583.22
2022-11-07T03:16:05.403Z,582.90
2022-11-07T03:16:15.402Z,582.74
2022-11-07T03:16:25.411Z,583.19
2022-11-07T03:16:35.407Z,583.08
2022-11-07T03:16:45.421Z,583.44
2022-11-07T03:16:55.402Z,582.85
2022-11-07T03:17:05.409Z,583.00
2022-11-07T03:17:15.411Z,583.19
2022-11-07T03:17:25.407Z,583.02
2022-11-07T03:17:35.411Z,582.94
2022-11-07T03:17:45.424Z,583.24
2022-11-07T03:17:55.420Z,582.80
2022-11-07T03:18:05.412Z,583.06
2022-11-07T03:18:15.412Z,582.80
2022-11-07T03:18:25.423Z,582.76
2022-11-07T03:18:35.412Z,582.41
2022-11-07T03:18:45.424Z,582.96
2022-11-07T03:18:55.433Z,582.77
2022-11-07T03:19:05.413Z,582.66
2022-11-07T03:19:15.416Z,582.59
2022-11-07T03:19:25.419Z,582.70
2022-11-07T03:19:35.417Z,582.54
2022-11-07T03:19:45.423Z,582.96
2022-11-07T03:19:55.417Z,582.56
2022-11-07T03:20:05.440Z,582.66
2022-11-07T03:20:15.440Z,582.82
2022-11-07T04:18:48.253Z,579.78
2022-11-07T04:18:58.295Z,579.64
2022-11-07T04:19:08.243Z,579.75
2022-11-07T04:19:18.244Z,579.80
2022-11-07T04:19:28.300Z,579.79
2022-11-07T04:19:38.272Z,579.73
2022-11-07T04:19:48.247Z,579.59
2022-11-07T04:19:58.246Z,579.87
2022-11-07T04:20:08.254Z,579.84
2022-11-07T04:20:18.257Z,580.10
2022-11-07T04:20:28.253Z,579.98
2022-11-07T04:20:38.298Z,579.83
2022-11-07T04:20:48.259Z,579.90
2022-11-07T04:20:58.253Z,579.86
2022-11-07T04:21:08.253Z,580.03
2022-11-07T04:21:18.272Z,579.83
2022-11-07T05:12:09.806Z,576.42
2022-11-07T05:12:19.781Z,576.42
2022-11-07T05:12:29.815Z,576.49
2022-11-07T05:12:39.779Z,576.45
2022-11-07T05:12:49.781Z,576.22
2022-11-07T05:12:59.786Z,576.36
2022-11-07T05:13:09.789Z,576.79
2022-11-07T05:13:19.804Z,576.39
2022-11-07T05:13:29.779Z,576.47
2022-11-07T05:13:39.781Z,576.50
2022-11-07T05:13:49.789Z,576.41
2022-11-07T05:13:59.783Z,576.38
2022-11-07T05:14:09.819Z,576.71
2022-11-07T05:14:19.792Z,576.42
2022-11-07T05:14:29.787Z,576.52
2022-11-07T05:14:39.787Z,576.69
2022-11-07T05:14:49.788Z,576.50
2022-11-07T05:14:59.795Z,576.47
2022-11-07T05:15:09.803Z,576.58
2022-11-07T05:15:19.812Z,576.45
2022-11-07T05:15:29.797Z,576.37
2022-11-07T05:15:39.792Z,576.16
2022-11-07T05:15:49.795Z,576.34
2022-11-07T05:15:59.794Z,576.35
2022-11-07T05:16:09.824Z,576.37
2022-11-07T05:16:19.804Z,576.53
2022-11-07T05:16:29.794Z,576.52
2022-11-07T05:16:39.799Z,576.49
2022-11-07T05:16:49.799Z,576.35
2022-11-07T05:16:59.799Z,576.32
2022-11-07T05:17:09.808Z,576.46
2022-11-07T05:17:20.846Z,576.60
2022-11-07T05:17:29.804Z,576.63
2022-11-07T05:48:32.427Z,577.10
2022-11-07T05:48:42.414Z,576.75
2022-11-07T05:48:55.351Z,576.18
2022-11-07T05:49:03.412Z,576.33
2022-11-07T05:49:12.406Z,576.08
2022-11-07T05:49:22.436Z,576.39
2022-11-07T05:49:32.414Z,576.33
2022-11-07T05:49:42.410Z,576.15
2022-11-07T05:49:52.419Z,576.14
2022-11-07T05:50:02.409Z,576.13
2022-11-07T05:50:12.431Z,576.23
2022-11-07T05:50:22.417Z,576.49
2022-11-07T05:50:32.418Z,576.17
2022-11-07T05:50:42.415Z,576.04
2022-11-07T05:50:52.418Z,576.11
2022-11-07T05:51:02.419Z,576.13
2022-11-07T05:51:12.432Z,575.94
2022-11-07T05:51:22.416Z,576.14
2022-11-07T05:51:32.447Z,576.05
2022-11-07T05:51:42.425Z,575.96
2022-11-07T05:51:52.421Z,575.97
2022-11-07T05:52:02.422Z,576.15
2022-11-07T05:52:12.439Z,576.21
2022-11-07T05:52:22.426Z,576.08
2022-11-07T05:52:32.427Z,576.10
2022-11-07T05:52:42.451Z,576.02
2022-11-07T05:52:52.526Z,576.09
2022-11-07T05:53:02.494Z,576.16
2022-11-07T05:53:12.766Z,576.17
2022-11-07T05:53:22.464Z,576.02
2022-11-07T05:53:32.497Z,575.94
2022-11-07T05:53:42.440Z,576.16
2022-11-07T05:53:52.463Z,575.96
2022-11-07T05:54:02.440Z,576.17
2022-11-07T05:54:12.435Z,576.01
2022-11-07T05:54:22.458Z,576.17
2022-11-07T05:54:32.442Z,575.88
2022-11-07T05:54:42.442Z,575.87
2022-11-07T05:54:52.437Z,575.95
2022-11-07T05:55:02.449Z,575.68
2022-11-07T05:55:12.437Z,575.96
2022-11-07T05:55:22.469Z,575.86
2022-11-07T05:55:32.467Z,575.88
2022-11-07T05:55:42.450Z,575.91
2022-11-07T05:55:52.446Z,575.94
2022-11-07T05:56:02.463Z,575.87
2022-11-07T05:56:12.446Z,576.03
2022-11-07T05:56:22.467Z,575.91
2022-11-07T05:56:32.449Z,575.85
2022-11-07T05:56:42.459Z,575.95
2022-11-07T05:56:52.448Z,576.00
2022-11-07T05:57:02.454Z,576.16
2022-11-07T05:57:12.466Z,576.22
2022-11-07T05:57:22.447Z,576.16
2022-11-07T05:57:32.454Z,576.39
2022-11-07T05:57:42.454Z,576.06
2022-11-07T05:57:52.452Z,576.24
2022-11-07T05:58:06.793Z,576.23
2022-11-07T05:58:12.453Z,576.16
2022-11-07T05:58:22.461Z,576.16
2022-11-07T05:58:32.460Z,576.15
2022-11-07T05:58:42.470Z,576.12
2022-11-07T05:58:52.405Z,576.06
2022-11-07T05:59:02.462Z,576.01
2022-11-07T05:59:12.424Z,576.03
2022-11-07T05:59:22.426Z,576.01
2022-11-07T05:59:32.412Z,575.91
2022-11-07T05:59:42.416Z,575.93
2022-11-07T05:59:52.426Z,575.92
2022-11-07T06:00:02.429Z,575.73
2022-11-07T06:00:12.410Z,575.96
2022-11-07T06:00:22.434Z,576.04
2022-11-07T06:00:32.413Z,576.10
2022-11-07T06:00:42.415Z,576.28
2022-11-07T06:00:52.415Z,576.16
2022-11-07T06:01:02.438Z,575.99
2022-11-07T06:01:12.415Z,576.08
2022-11-07T06:01:22.455Z,576.09
2022-11-07T06:01:32.500Z,575.99
2022-11-07T06:01:42.506Z,575.99
2022-11-07T06:01:52.515Z,576.11
2022-11-07T06:02:02.652Z,575.99
2022-11-07T06:02:12.559Z,575.92
2022-11-07T06:02:22.534Z,576.06
2022-11-07T06:02:32.528Z,575.80
2022-11-07T06:02:42.492Z,575.87
2022-11-07T06:02:52.549Z,576.25
2022-11-07T06:03:02.506Z,575.92
2022-11-07T06:03:12.656Z,576.15
2022-11-07T06:03:22.498Z,576.04
2022-11-07T06:03:32.441Z,575.76
2022-11-07T06:03:42.435Z,575.95
2022-11-07T06:03:52.433Z,576.00
2022-11-07T06:04:02.433Z,576.01
2022-11-07T06:04:12.461Z,575.99
2022-11-07T06:04:22.436Z,575.99
2022-11-07T06:04:32.443Z,575.80
2022-11-07T06:04:42.447Z,576.12
2022-11-07T06:04:52.435Z,576.14
2022-11-07T06:05:02.442Z,576.03
2022-11-07T06:05:12.435Z,576.09
2022-11-07T06:05:24.310Z,575.97
2022-11-07T06:05:32.441Z,575.88
2022-11-07T06:05:42.461Z,575.62
2022-11-07T06:05:52.446Z,575.90
2022-11-07T06:06:02.442Z,575.81
2022-11-07T06:06:12.452Z,575.60